createdAt,value
2018-04-18T00:00:28.170Z,16.32
2018-04-18T00:01:37.715Z,16.37
2018-04-18T00:02:47.532Z,16.27
2018-04-18T00:03:57.354Z,16.29
2018-04-18T00:05:07.166Z,16.22
2018-04-18T00:06:17.043Z,16.25
2018-04-18T00:07:26.608Z,16.16
2018-04-18T00:08:36.149Z,16.13
2018-04-18T00:09:45.959Z,15.99
2018-04-18T00:10:56.044Z,15.96
2018-04-18T00:12:05.340Z,15.98
2018-04-18T00:13:15.164Z,15.95
2018-04-18T00:14:24.988Z,15.93
2018-04-18T00:15:34.816Z,15.96
2018-04-18T00:16:45.032Z,15.96
2018-04-18T00:17:54.835Z,15.99
2018-04-18T00:19:04.916Z,15.99
2018-04-18T00:20:15.004Z,16.02
2018-04-18T00:21:24.819Z,15.92
2018-04-18T00:22:34.901Z,15.92
2018-04-18T00:23:44.969Z,15.89
2018-04-18T00:24:54.531Z,15.81
2018-04-18T00:26:04.332Z,15.88
2018-04-18T00:27:14.417Z,15.92
2018-04-18T00:28:24.495Z,15.91
2018-04-18T00:29:34.592Z,15.88
2018-04-18T00:30:44.687Z,15.81
2018-04-18T00:31:54.788Z,15.8
2018-04-18T00:33:04.612Z,15.83
2018-04-18T00:34:14.412Z,15.88
2018-04-18T00:35:24.217Z,15.86
2018-04-18T00:36:34.322Z,15.78
2018-04-18T00:37:44.408Z,15.8
2018-04-18T00:38:54.469Z,15.8
2018-04-18T00:40:04.293Z,15.88
2018-04-18T00:41:14.137Z,15.84
2018-04-18T00:42:24.215Z,15.84
2018-04-18T00:43:33.751Z,15.77
2018-04-18T00:44:43.566Z,15.73
2018-04-18T00:45:53.399Z,15.67
2018-04-18T00:47:03.470Z,15.62
2018-04-18T00:48:13.305Z,15.67
2018-04-18T00:49:23.130Z,15.56
2018-04-18T00:50:33.196Z,15.56
2018-04-18T00:51:43.014Z,15.55
2018-04-18T00:52:52.837Z,15.49
2018-04-18T00:54:02.918Z,15.44
2018-04-18T00:55:12.737Z,15.47
2018-04-18T00:56:22.823Z,15.43
2018-04-18T00:57:32.626Z,15.59
2018-04-18T00:58:42.757Z,15.52
2018-04-18T00:59:52.844Z,15.56
2018-04-18T01:01:02.940Z,15.59
2018-04-18T01:02:12.788Z,15.63
2018-04-18T01:03:22.867Z,15.58
2018-04-18T01:04:32.946Z,15.58
2018-04-18T01:05:42.835Z,15.58
2018-04-18T01:06:52.386Z,15.58
2018-04-18T01:08:02.203Z,15.58
2018-04-18T01:09:12.291Z,15.6
2018-04-18T01:10:22.358Z,15.58
2018-04-18T01:11:32.462Z,15.55
2018-04-18T01:12:42.552Z,15.43
2018-04-18T01:13:52.390Z,15.44
2018-04-18T01:15:02.470Z,15.52
2018-04-18T01:16:12.540Z,15.51
2018-04-18T01:17:22.362Z,15.52
2018-04-18T01:18:32.177Z,15.43
2018-04-18T01:19:42.243Z,15.47
2018-04-18T01:20:52.057Z,15.45
2018-04-18T01:22:02.138Z,15.43
2018-04-18T01:23:12.210Z,15.35
2018-04-18T01:24:22.296Z,15.4
2018-04-18T01:25:32.354Z,15.33
2018-04-18T01:26:42.429Z,15.35
2018-04-18T01:27:52.506Z,15.31
2018-04-18T01:29:02.589Z,15.25
2018-04-18T01:30:12.653Z,15.27
2018-04-18T01:31:22.726Z,15.25
2018-04-18T01:32:32.824Z,15.26
2018-04-18T01:33:42.911Z,15.31
2018-04-18T01:34:52.985Z,15.3
2018-04-18T01:36:03.049Z,15.3
2018-04-18T01:37:12.855Z,15.27
2018-04-18T01:38:22.414Z,15.27
2018-04-18T01:39:32.507Z,15.3
2018-04-18T01:40:42.599Z,15.3
2018-04-18T01:41:52.687Z,15.38
2018-04-18T01:43:02.774Z,15.2
2018-04-18T01:44:12.865Z,15.2
2018-04-18T01:45:22.667Z,15.2
2018-04-18T01:46:32.288Z,15.15
2018-04-18T01:47:42.107Z,15.08
2018-04-18T01:48:51.917Z,15.1
2018-04-18T01:50:01.988Z,15.12
2018-04-18T01:51:12.065Z,15.07
2018-04-18T01:52:22.154Z,15.05
2018-04-18T01:53:32.229Z,14.97
2018-04-18T01:54:42.299Z,14.89
2018-04-18T01:55:52.135Z,14.95
2018-04-18T01:57:02.246Z,14.9
2018-04-18T01:58:12.434Z,14.87
2018-04-18T01:59:22.331Z,14.9
2018-04-18T02:00:32.536Z,14.79
2018-04-18T02:01:42.613Z,14.77
2018-04-18T02:02:52.696Z,14.82
2018-04-18T02:04:02.780Z,14.75
2018-04-18T02:05:12.872Z,14.75
2018-04-18T02:06:22.709Z,14.82
2018-04-18T02:07:32.790Z,14.74
2018-04-18T02:08:42.862Z,14.63
2018-04-18T02:09:52.957Z,14.64
2018-04-18T02:11:03.032Z,14.56
2018-04-18T02:12:13.122Z,14.67
2018-04-18T02:13:23.018Z,14.64
2018-04-18T02:14:33.094Z,14.67
2018-04-18T02:15:43.219Z,14.69
2018-04-18T02:16:53.289Z,14.69
2018-04-18T02:18:03.102Z,14.64
2018-04-18T02:19:13.173Z,14.67
2018-04-18T02:20:23.255Z,14.69
2018-04-18T02:21:33.342Z,14.57
2018-04-18T02:22:43.415Z,14.6
2018-04-18T02:23:53.499Z,14.6
2018-04-18T02:25:03.578Z,14.66
2018-04-18T02:26:13.681Z,14.59
2018-04-18T02:27:23.518Z,14.57
2018-04-18T02:28:33.345Z,14.57
2018-04-18T02:29:43.440Z,14.52
2018-04-18T02:30:53.265Z,14.53
2018-04-18T02:32:03.368Z,14.48
2018-04-18T02:33:13.476Z,14.46
2018-04-18T02:34:23.567Z,14.52
2018-04-18T02:35:33.666Z,14.52
2018-04-18T02:36:43.735Z,14.56
2018-04-18T02:37:53.809Z,14.48
2018-04-18T02:39:03.612Z,14.49
2018-04-18T02:40:13.170Z,14.51
2018-04-18T02:41:23.262Z,14.42
2018-04-18T02:42:33.364Z,14.42
2018-04-18T02:43:43.461Z,14.41
2018-04-18T02:44:53.287Z,14.3
2018-04-18T02:46:03.357Z,14.42
2018-04-18T02:47:13.191Z,14.26
2018-04-18T02:48:23.282Z,14.38
2018-04-18T02:49:33.376Z,14.39
2018-04-18T02:50:43.509Z,14.38
2018-04-18T02:51:53.578Z,14.36
2018-04-18T02:53:03.659Z,14.34
2018-04-18T02:54:13.751Z,14.33
2018-04-18T02:55:23.863Z,14.26
2018-04-18T02:56:33.472Z,14.27
2018-04-18T02:57:43.585Z,14.3
2018-04-18T02:58:53.660Z,14.33
2018-04-18T03:00:03.745Z,14.27
2018-04-18T03:01:13.857Z,14.26
2018-04-18T03:02:23.923Z,14.28
2018-04-18T03:34:10.306Z,11.48
2018-04-18T03:35:19.851Z,11.56
2018-04-18T03:36:29.928Z,11.6
2018-04-18T03:37:40.006Z,11.51
2018-04-18T03:38:50.079Z,11.67
2018-04-18T03:40:00.145Z,11.75
2018-04-18T03:41:10.208Z,11.82
2018-04-18T03:42:20.287Z,11.97
2018-04-18T03:43:30.359Z,12.07
2018-04-18T03:44:40.438Z,12.19
2018-04-18T03:45:50.571Z,12.34
2018-04-18T03:47:00.638Z,12.44
2018-04-18T03:48:10.692Z,12.55
2018-04-18T03:49:20.504Z,12.74
2018-04-18T03:50:30.577Z,12.86
2018-04-18T03:51:40.747Z,12.88
2018-04-18T03:52:50.834Z,13.03
2018-04-18T03:54:00.914Z,13.14
2018-04-18T03:55:10.977Z,13.2
2018-04-18T03:56:21.080Z,13.28
2018-04-18T03:57:31.202Z,13.37
2018-04-18T03:58:41.297Z,13.45
2018-04-18T03:59:51.384Z,13.57
2018-04-18T04:01:01.461Z,13.62
2018-04-18T04:02:11.537Z,13.65
2018-04-18T04:03:21.643Z,13.6
2018-04-18T04:04:31.720Z,13.69
2018-04-18T04:05:41.796Z,13.69
2018-04-18T04:06:51.636Z,13.81
2018-04-18T04:08:01.714Z,13.83
2018-04-18T04:09:11.528Z,13.88
2018-04-18T04:10:21.594Z,13.87
2018-04-18T04:11:31.742Z,13.97
2018-04-18T04:12:41.832Z,13.88
2018-04-18T04:13:51.925Z,13.91
2018-04-18T04:15:01.836Z,13.9
2018-04-18T04:16:11.919Z,13.97
2018-04-18T04:17:22.043Z,13.97
2018-04-18T04:18:32.116Z,14.13
2018-04-18T04:19:41.948Z,14.09
2018-04-18T04:20:52.077Z,14.15
2018-04-18T04:22:02.180Z,14.23
2018-04-18T04:23:11.991Z,14.3
2018-04-18T04:24:22.084Z,14.39
2018-04-18T04:25:32.167Z,14.39
2018-04-18T04:26:42.233Z,14.44
2018-04-18T04:27:52.312Z,14.53
2018-04-18T04:29:02.393Z,14.59
2018-04-18T04:30:12.504Z,14.86
2018-04-18T04:31:22.325Z,15.26
2018-04-18T04:32:32.198Z,15.59
2018-04-18T04:33:42.024Z,15.84
2018-04-18T04:34:51.858Z,16.1
2018-04-18T04:36:01.937Z,16.26
2018-04-18T04:37:12.007Z,16.36
2018-04-18T04:38:22.138Z,16.59
2018-04-18T04:39:31.941Z,16.7
2018-04-18T04:40:42.051Z,16.99
2018-04-18T04:41:52.124Z,17.07
2018-04-18T04:43:01.922Z,17.22
2018-04-18T04:44:12.011Z,17.27
2018-04-18T04:45:21.830Z,17.45
2018-04-18T04:46:31.895Z,17.46
2018-04-18T04:47:41.977Z,17.57
2018-04-18T04:48:52.094Z,17.71
2018-04-18T04:50:02.166Z,17.81
2018-04-18T04:51:12.248Z,18.13
2018-04-18T04:52:22.063Z,18.23
2018-04-18T04:53:32.158Z,18.44
2018-04-18T04:54:42.241Z,18.57
2018-04-18T04:55:52.054Z,18.74
2018-04-18T04:57:02.134Z,18.87
2018-04-18T04:58:12.216Z,18.78
2018-04-18T04:59:21.507Z,18.78
2018-04-18T05:00:31.572Z,19.02
2018-04-18T05:01:41.400Z,19.34
2018-04-18T05:02:51.490Z,19.6
2018-04-18T05:04:01.577Z,19.7
2018-04-18T05:05:11.388Z,19.75
2018-04-18T05:06:21.476Z,20.02
2018-04-18T05:07:31.605Z,20.05
2018-04-18T05:08:41.673Z,20.2
2018-04-18T05:09:51.758Z,20.27
2018-04-18T05:11:01.849Z,20.41
2018-04-18T05:12:11.922Z,20.49
2018-04-18T05:13:22.011Z,20.49
2018-04-18T05:14:31.853Z,20.6
2018-04-18T05:15:41.947Z,20.68
2018-04-18T05:16:52.022Z,20.71
2018-04-18T05:18:02.112Z,20.53
2018-04-18T05:19:12.230Z,20.68
2018-04-18T05:20:22.331Z,20.67
2018-04-18T05:21:32.422Z,20.71
2018-04-18T05:22:42.245Z,20.68
2018-04-18T05:23:52.067Z,20.82
2018-04-18T05:25:02.147Z,20.9
2018-04-18T05:26:11.968Z,20.93
2018-04-18T05:27:22.058Z,21.04
2018-04-18T05:28:32.146Z,21.09
2018-04-18T05:29:42.230Z,21.21
2018-04-18T05:30:52.342Z,21.27
2018-04-18T05:32:02.563Z,21.36
2018-04-18T05:33:12.367Z,21.31
2018-04-18T05:34:22.257Z,21.36
2018-04-18T05:35:32.372Z,21.46
2018-04-18T05:36:41.920Z,21.37
2018-04-18T05:37:52.037Z,21.25
2018-04-18T05:39:01.867Z,20.86
2018-04-18T05:40:11.954Z,20.38
2018-04-18T05:41:22.047Z,20.08
2018-04-18T05:42:31.873Z,19.98
2018-04-18T05:43:41.682Z,19.82
2018-04-18T05:44:51.508Z,20.16
2018-04-18T05:46:01.637Z,20.27
2018-04-18T05:47:11.743Z,20.2
2018-04-18T05:48:21.859Z,19.8
2018-04-18T05:49:31.697Z,19.64
2018-04-18T05:50:41.780Z,19.3
2018-04-18T05:51:51.588Z,19.24
2018-04-18T05:53:01.661Z,19.15
2018-04-18T05:54:11.734Z,19.13
2018-04-18T05:55:21.719Z,19.1
2018-04-18T05:56:31.668Z,19.06
2018-04-18T05:57:41.294Z,19.05
2018-04-18T05:58:51.109Z,19.34
2018-04-18T06:00:00.916Z,19.47
2018-04-18T06:01:10.467Z,19.49
2018-04-18T06:02:20.579Z,19.46
2018-04-18T06:03:30.148Z,19.31
2018-04-18T06:04:40.264Z,19.24
2018-04-18T06:05:50.405Z,19.13
2018-04-18T06:07:00.234Z,19.24
2018-04-18T06:08:10.312Z,19.38
2018-04-18T06:09:20.395Z,19.52
2018-04-18T06:10:30.502Z,19.67
2018-04-18T06:11:41.072Z,19.6
2018-04-18T06:12:50.894Z,19.47
2018-04-18T06:14:00.991Z,19.45
2018-04-18T06:15:11.135Z,19.38
2018-04-18T06:16:20.954Z,19.37
2018-04-18T06:17:30.772Z,19.34
2018-04-18T06:18:40.863Z,19.3
2018-04-18T06:19:50.696Z,19.28
2018-04-18T06:21:00.837Z,19.34
2018-04-18T06:22:10.921Z,19.45
2018-04-18T06:23:20.479Z,19.35
2018-04-18T06:24:30.550Z,19.34
2018-04-18T06:25:40.371Z,19.42
2018-04-18T06:26:50.517Z,19.45
2018-04-18T06:28:00.628Z,19.34
2018-04-18T06:29:10.696Z,19.45
2018-04-18T06:30:20.792Z,19.45
2018-04-18T06:31:30.869Z,19.46
2018-04-18T06:32:40.961Z,19.55
2018-04-18T06:33:51.065Z,19.67
2018-04-18T06:35:01.149Z,19.63
2018-04-18T06:36:11.312Z,19.56
2018-04-18T06:37:21.129Z,19.71
2018-04-18T06:38:31.223Z,19.72
2018-04-18T06:39:41.041Z,19.75
2018-04-18T06:40:51.183Z,19.72
2018-04-18T06:42:01.012Z,19.79
2018-04-18T06:43:11.104Z,19.79
2018-04-18T06:44:20.921Z,19.86
2018-04-18T06:45:31.039Z,19.86
2018-04-18T06:46:41.123Z,19.92
2018-04-18T06:47:51.223Z,19.98
2018-04-18T06:49:01.355Z,19.98
2018-04-18T06:50:11.436Z,20.02
2018-04-18T06:51:21.662Z,20.11
2018-04-18T06:52:31.780Z,20.04
2018-04-18T06:53:41.593Z,20.15
2018-04-18T06:54:51.669Z,20.1
2018-04-18T06:56:01.481Z,20.25
2018-04-18T06:57:11.562Z,20.25
2018-04-18T06:58:21.630Z,20.26
2018-04-18T06:59:31.706Z,20.29
2018-04-18T07:00:41.817Z,20.3
2018-04-18T07:01:51.916Z,20.37
2018-04-18T07:03:01.731Z,20.42
2018-04-18T07:04:11.574Z,20.49
2018-04-18T07:05:21.402Z,20.44
2018-04-18T07:06:30.953Z,20.54
2018-04-18T07:07:40.790Z,20.56
2018-04-18T07:08:50.879Z,20.66
2018-04-18T07:10:00.966Z,20.71
2018-04-18T07:11:10.906Z,20.71
2018-04-18T07:12:20.952Z,20.83
2018-04-18T07:13:31.039Z,20.81
2018-04-18T07:14:41.120Z,20.9
2018-04-18T07:15:51.223Z,20.9
2018-04-18T07:17:01.032Z,21
2018-04-18T07:18:11.163Z,21.09
2018-04-18T07:19:20.712Z,21.08
2018-04-18T07:20:30.799Z,21.16
2018-04-18T07:21:40.616Z,21.23
2018-04-18T07:22:50.712Z,21.3
2018-04-18T07:24:00.577Z,21.41
2018-04-18T07:25:10.384Z,21.43
2018-04-18T07:26:20.494Z,21.53
2018-04-18T07:27:30.333Z,21.49
2018-04-18T07:28:39.928Z,21.58
2018-04-18T07:29:50.035Z,21.55
2018-04-18T07:30:59.886Z,21.64
2018-04-18T07:32:09.964Z,21.68
2018-04-18T07:33:20.097Z,21.64
2018-04-18T07:34:30.266Z,21.71
2018-04-18T07:35:40.351Z,21.67
2018-04-18T07:36:50.430Z,21.77
2018-04-18T07:38:00.253Z,21.76
2018-04-18T07:39:10.311Z,21.74
2018-04-18T07:40:20.136Z,21.8
2018-04-18T07:41:30.219Z,21.93
2018-04-18T07:42:40.068Z,21.94
2018-04-18T07:43:50.179Z,21.94
2018-04-18T07:45:00.256Z,21.94
2018-04-18T07:46:10.336Z,22
2018-04-18T07:47:20.139Z,22.02
2018-04-18T07:48:30.215Z,22.09
2018-04-18T07:49:40.318Z,22.09
2018-04-18T07:50:50.157Z,22.26
2018-04-18T07:51:59.958Z,22.26
2018-04-18T07:53:10.072Z,22.26
2018-04-18T07:54:20.169Z,22.29
2018-04-18T07:55:29.995Z,22.41
2018-04-18T07:56:40.093Z,22.42
2018-04-18T07:57:49.929Z,22.3
2018-04-18T07:59:00.015Z,22.46
2018-04-18T08:00:10.110Z,22.34
2018-04-18T08:01:20.203Z,22.41
2018-04-18T08:02:30.334Z,22.42
2018-04-18T08:03:40.418Z,22.51
2018-04-18T08:04:50.497Z,22.55
2018-04-18T08:06:00.588Z,22.59
2018-04-18T08:07:10.419Z,22.67
2018-04-18T08:08:20.506Z,22.69
2018-04-18T08:09:30.602Z,22.71
2018-04-18T08:10:40.705Z,22.76
2018-04-18T08:11:50.812Z,22.91
2018-04-18T08:13:00.382Z,22.88
2018-04-18T08:14:10.529Z,22.88
2018-04-18T08:15:20.835Z,23.01
2018-04-18T08:16:31.298Z,22.91
2018-04-18T08:17:41.380Z,22.89
2018-04-18T08:18:51.472Z,22.91
2018-04-18T08:20:01.615Z,23.03
2018-04-18T08:21:11.438Z,23
2018-04-18T08:22:21.285Z,22.91
2018-04-18T08:23:31.362Z,22.88
2018-04-18T08:24:41.176Z,22.86
2018-04-18T08:25:51.264Z,22.91
2018-04-18T08:27:01.375Z,22.91
2018-04-18T08:28:10.940Z,22.88
2018-04-18T08:29:21.030Z,22.92
2018-04-18T08:30:30.854Z,22.99
2018-04-18T08:31:40.945Z,23.1
2018-04-18T08:32:51.053Z,23.04
2018-04-18T08:34:01.263Z,23.16
2018-04-18T08:35:11.212Z,23.15
2018-04-18T08:36:21.297Z,23.29
2018-04-18T08:37:31.162Z,23.26
2018-04-18T08:38:41.255Z,23.45
2018-04-18T08:39:51.064Z,23.52
2018-04-18T08:41:01.137Z,23.64
2018-04-18T08:42:11.221Z,23.67
2018-04-18T08:43:21.055Z,23.67
2018-04-18T08:44:31.135Z,23.81
2018-04-18T08:45:41.227Z,23.89
2018-04-18T08:46:51.311Z,23.85
2018-04-18T08:48:01.402Z,24
2018-04-18T08:49:11.483Z,24.02
2018-04-18T08:50:21.573Z,24.27
2018-04-18T08:51:31.665Z,24.14
2018-04-18T08:52:41.507Z,24.4
2018-04-18T08:53:51.118Z,24.54
2018-04-18T08:55:01.267Z,24.67
2018-04-18T08:56:11.368Z,24.74
2018-04-18T08:57:20.936Z,24.77
2018-04-18T08:58:31.027Z,24.59
2018-04-18T08:59:41.141Z,24.58
2018-04-18T09:00:51.234Z,24.51
2018-04-18T09:02:01.394Z,24.63
2018-04-18T09:03:11.253Z,24.75
2018-04-18T09:04:21.354Z,24.83
2018-04-18T09:05:31.464Z,24.59
2018-04-18T09:06:41.289Z,24.27
2018-04-18T09:07:51.135Z,24
2018-04-18T09:09:01.240Z,24.09
2018-04-18T09:10:11.334Z,24.19
2018-04-18T09:11:21.430Z,24.33
2018-04-18T09:12:31.506Z,24.69
2018-04-18T09:13:41.574Z,24.78
2018-04-18T09:14:51.386Z,24.86
2018-04-18T09:16:01.477Z,24.87
2018-04-18T09:17:11.571Z,24.94
2018-04-18T09:18:21.655Z,24.85
2018-04-18T09:19:31.762Z,24.64
2018-04-18T09:20:41.847Z,24.67
2018-04-18T09:21:51.672Z,24.77
2018-04-18T09:23:01.762Z,24.89
2018-04-18T09:24:11.882Z,25.04
2018-04-18T09:25:21.983Z,25.14
2018-04-18T09:26:32.065Z,25.3
2018-04-18T09:27:42.145Z,25.3
2018-04-18T09:28:52.251Z,25.45
2018-04-18T09:30:02.072Z,25.44
2018-04-18T09:31:12.174Z,25.67
2018-04-18T09:32:21.733Z,25.82
2018-04-18T09:33:31.603Z,25.78
2018-04-18T09:34:41.724Z,26.17
2018-04-18T09:35:51.803Z,26.24
2018-04-18T09:37:01.626Z,26.06
2018-04-18T09:38:11.721Z,26.16
2018-04-18T09:39:21.815Z,26.45
2018-04-18T09:40:31.642Z,26.41
2018-04-18T09:41:41.756Z,26.38
2018-04-18T09:42:51.600Z,26.81
2018-04-18T09:44:01.681Z,26.89
2018-04-18T09:45:11.901Z,26.96
2018-04-18T09:46:22.086Z,26.79
2018-04-18T09:47:32.168Z,26.15
2018-04-18T09:48:42.261Z,25.71
2018-04-18T09:49:51.828Z,25.41
2018-04-18T09:51:01.914Z,25.45
2018-04-18T09:52:12.075Z,25.57
2018-04-18T09:53:22.169Z,25.54
2018-04-18T09:54:32.276Z,25.6
2018-04-18T09:55:42.358Z,25.57
2018-04-18T09:56:52.437Z,25.71
2018-04-18T09:58:02.267Z,25.76
2018-04-18T09:59:12.347Z,25.79
2018-04-18T10:00:22.444Z,25.86
2018-04-18T10:01:32.583Z,25.99
2018-04-18T10:02:42.668Z,26.23
2018-04-18T10:03:52.764Z,25.89
2018-04-18T10:05:02.857Z,26.07
2018-04-18T10:06:12.703Z,26.19
2018-04-18T10:07:22.579Z,26.16
2018-04-18T10:08:32.395Z,26.2
2018-04-18T10:09:42.501Z,26.15
2018-04-18T10:10:52.575Z,25.88
2018-04-18T10:12:02.395Z,25.97
2018-04-18T10:13:12.542Z,26.01
2018-04-18T10:14:22.389Z,25.78
2018-04-18T10:15:32.492Z,25.6
2018-04-18T10:16:42.585Z,25.84
2018-04-18T10:17:52.394Z,25.85
2018-04-18T10:19:02.468Z,25.93
2018-04-18T10:20:12.535Z,26
2018-04-18T10:21:22.367Z,25.97
2018-04-18T10:22:32.490Z,25.97
2018-04-18T10:23:42.556Z,26.03
2018-04-18T10:24:52.660Z,25.91
2018-04-18T10:26:02.473Z,25.82
2018-04-18T10:27:12.286Z,25.84
2018-04-18T10:28:22.371Z,25.82
2018-04-18T10:29:32.470Z,25.91
2018-04-18T10:30:42.290Z,25.82
2018-04-18T10:31:52.381Z,25.81
2018-04-18T10:33:02.503Z,25.79
2018-04-18T10:34:12.639Z,25.79
2018-04-18T10:35:22.718Z,25.78
2018-04-18T10:36:32.857Z,25.82
2018-04-18T10:37:42.989Z,25.99
2018-04-18T10:38:53.060Z,26
2018-04-18T10:40:03.158Z,26.11
2018-04-18T10:41:12.994Z,26.17
2018-04-18T10:42:22.822Z,26.23
2018-04-18T10:43:32.884Z,26.3
2018-04-18T10:44:42.699Z,26.31
2018-04-18T10:45:52.792Z,26.27
2018-04-18T10:47:02.880Z,26.27
2018-04-18T10:48:12.763Z,26.3
2018-04-18T10:49:22.869Z,26.39
2018-04-18T10:50:32.978Z,26.34
2018-04-18T10:51:42.815Z,26.37
2018-04-18T10:52:53.038Z,26.3
2018-04-18T10:54:03.272Z,26.22
2018-04-18T10:55:12.827Z,26.15
2018-04-18T10:56:22.908Z,26.16
2018-04-18T10:57:33.017Z,26.17
2018-04-18T10:58:43.185Z,26.23
2018-04-18T10:59:53.023Z,26.3
2018-04-18T11:01:02.863Z,26.31
2018-04-18T11:02:12.968Z,26.44
2018-04-18T11:03:23.064Z,26.42
2018-04-18T11:04:33.180Z,26.5
2018-04-18T11:05:43.263Z,26.49
2018-04-18T11:06:53.346Z,26.56
2018-04-18T11:08:03.170Z,26.56
2018-04-18T11:09:13.016Z,26.6
2018-04-18T11:10:23.082Z,26.68
2018-04-18T11:11:33.189Z,26.68
2018-04-18T11:12:43.019Z,26.71
2018-04-18T11:13:53.105Z,26.68
2018-04-18T11:15:03.204Z,26.82
2018-04-18T11:16:13.045Z,26.79
2018-04-18T11:17:23.127Z,26.79
2018-04-18T11:18:33.236Z,26.79
2018-04-18T11:19:43.442Z,26.93
2018-04-18T11:20:53.532Z,26.79
2018-04-18T11:22:03.336Z,26.81
2018-04-18T11:23:13.518Z,26.82
2018-04-18T11:24:23.828Z,26.93
2018-04-18T11:25:33.926Z,26.96
2018-04-18T11:26:44.044Z,26.86
2018-04-18T11:27:54.132Z,26.99
2018-04-18T11:29:07.780Z,27
2018-04-18T11:30:17.866Z,27.11
2018-04-18T11:31:27.493Z,27.15
2018-04-18T11:32:37.638Z,27.13
2018-04-18T11:33:47.470Z,27.11
2018-04-18T11:34:57.568Z,27.08
2018-04-18T11:36:07.469Z,27.16
2018-04-18T11:37:17.375Z,27.24
2018-04-18T11:38:27.472Z,27.23
2018-04-18T11:39:37.572Z,27.21
2018-04-18T11:40:47.718Z,27.23
2018-04-18T11:41:57.822Z,27.28
2018-04-18T11:43:07.933Z,27.3
2018-04-18T11:44:18.044Z,27.33
2018-04-18T11:45:28.195Z,27.37
2018-04-18T11:46:38.411Z,27.43
2018-04-18T11:47:48.506Z,27.52
2018-04-18T11:48:58.650Z,27.62
2018-04-18T11:50:08.737Z,27.62
2018-04-18T11:51:19.178Z,27.61
2018-04-18T11:52:29.354Z,27.59
2018-04-18T11:53:39.471Z,27.61
2018-04-18T11:54:49.362Z,27.71
2018-04-18T11:55:59.220Z,27.76
2018-04-18T11:57:09.318Z,27.89
2018-04-18T11:58:19.683Z,28.01
2018-04-18T11:59:29.792Z,27.99
2018-04-18T12:00:39.942Z,28.03
2018-04-18T12:01:50.088Z,28.14
2018-04-18T12:03:00.213Z,28.21
2018-04-18T12:04:10.465Z,28.24
2018-04-18T12:05:20.388Z,28.28
2018-04-18T12:06:30.510Z,28.23
2018-04-18T12:07:40.641Z,28.3
2018-04-18T12:08:50.494Z,28.28
2018-04-18T12:10:00.846Z,28.31
2018-04-18T12:11:10.956Z,28.42
2018-04-18T12:12:20.826Z,28.51
2018-04-18T12:13:30.658Z,28.58
2018-04-18T12:14:40.526Z,28.64
2018-04-18T12:15:50.619Z,28.67
2018-04-18T12:17:00.716Z,28.67
2018-04-18T12:18:10.864Z,28.75
2018-04-18T12:19:20.964Z,28.67
2018-04-18T12:20:31.190Z,28.68
2018-04-18T12:21:41.403Z,28.83
2018-04-18T12:22:51.527Z,28.9
2018-04-18T12:24:01.446Z,28.8
2018-04-18T12:25:11.279Z,28.85
2018-04-18T12:26:21.625Z,28.79
2018-04-18T12:27:31.713Z,28.83
2018-04-18T12:28:41.576Z,28.85
2018-04-18T12:29:51.403Z,28.83
2018-04-18T12:31:01.532Z,28.91
2018-04-18T12:32:11.379Z,28.94
2018-04-18T12:33:21.500Z,28.85
2018-04-18T12:34:31.370Z,28.9
2018-04-18T12:35:41.555Z,28.9
2018-04-18T12:36:51.689Z,28.82
2018-04-18T12:38:01.783Z,28.75
2018-04-18T12:39:11.632Z,28.64
2018-04-18T12:40:21.733Z,28.8
2018-04-18T12:41:31.921Z,28.68
2018-04-18T12:42:42.005Z,28.68
2018-04-18T12:43:51.978Z,28.65
2018-04-18T12:45:02.097Z,28.61
2018-04-18T12:46:12.207Z,28.67
2018-04-18T12:47:22.105Z,28.68
2018-04-18T12:48:32.217Z,28.75
2018-04-18T12:49:42.356Z,28.82
2018-04-18T12:50:52.475Z,28.79
2018-04-18T12:52:02.593Z,28.86
2018-04-18T12:53:12.726Z,28.83
2018-04-18T12:54:22.833Z,28.82
2018-04-18T12:55:32.672Z,28.75
2018-04-18T12:56:42.788Z,28.76
2018-04-18T12:57:52.892Z,28.65
2018-04-18T12:59:02.744Z,28.73
2018-04-18T13:00:12.597Z,28.65
2018-04-18T13:01:22.713Z,28.85
2018-04-18T13:02:32.825Z,28.86
2018-04-18T13:03:42.943Z,28.94
2018-04-18T13:04:53.122Z,28.86
2018-04-18T13:06:03.222Z,28.91
2018-04-18T13:07:13.329Z,28.85
2018-04-18T13:08:23.173Z,28.79
2018-04-18T13:09:33.008Z,28.82
2018-04-18T13:10:43.286Z,28.78
2018-04-18T13:11:53.227Z,28.85
2018-04-18T13:13:03.065Z,28.79
2018-04-18T13:14:13.165Z,28.67
2018-04-18T13:15:23.282Z,28.73
2018-04-18T13:16:33.391Z,28.78
2018-04-18T13:17:43.442Z,28.76
2018-04-18T13:18:53.553Z,28.73
2018-04-18T13:20:03.643Z,28.79
2018-04-18T13:21:13.978Z,28.88
2018-04-18T13:22:23.874Z,28.75
2018-04-18T13:23:33.996Z,28.75
2018-04-18T13:24:43.833Z,28.76
2018-04-18T13:25:53.895Z,28.68
2018-04-18T13:27:04.013Z,28.7
2018-04-18T13:28:14.161Z,28.68
2018-04-18T13:29:24.278Z,28.51
2018-04-18T13:30:34.107Z,28.43
2018-04-18T13:31:44.194Z,28.49
2018-04-18T13:32:54.296Z,28.42
2018-04-18T13:34:04.192Z,28.35
2018-04-18T13:35:14.309Z,28.18
2018-04-18T13:36:24.495Z,28.24
2018-04-18T13:37:34.603Z,28.3
2018-04-18T13:38:44.717Z,28.23
2018-04-18T13:39:54.805Z,28.31
2018-04-18T13:41:04.650Z,28.21
2018-04-18T13:42:14.474Z,28.21
2018-04-18T13:43:24.570Z,28.21
2018-04-18T13:44:34.652Z,28.31
2018-04-18T13:45:44.758Z,28.28
2018-04-18T13:46:54.875Z,28.31
2018-04-18T13:48:05.098Z,28.33
2018-04-18T13:49:15.187Z,28.31
2018-04-18T13:50:25.306Z,28.26
2018-04-18T13:51:35.410Z,28.24
2018-04-18T13:52:45.515Z,28.17
2018-04-18T13:53:55.629Z,28.11
2018-04-18T13:55:05.757Z,28.06
2018-04-18T13:56:15.858Z,28.03
2018-04-18T13:57:25.717Z,28.03
2018-04-18T13:58:35.538Z,27.98
2018-04-18T13:59:45.661Z,27.98
2018-04-18T14:00:55.775Z,27.98
2018-04-18T14:02:05.878Z,27.96
2018-04-18T14:03:15.761Z,28.02
2018-04-18T14:04:25.872Z,28.03
2018-04-18T14:05:35.733Z,28.02
2018-04-18T14:06:45.859Z,27.99
2018-04-18T14:07:55.771Z,27.99
2018-04-18T14:09:05.921Z,27.94
2018-04-18T14:10:16.025Z,27.84
2018-04-18T14:11:25.863Z,27.86
2018-04-18T14:12:35.967Z,27.87
2018-04-18T14:13:46.116Z,27.89
2018-04-18T14:14:56.226Z,27.87
2018-04-18T14:16:06.335Z,27.89
2018-04-18T14:17:16.438Z,27.99
2018-04-18T14:18:26.533Z,27.98
2018-04-18T14:19:36.475Z,27.99
2018-04-18T14:20:46.578Z,27.99
2018-04-18T14:21:56.879Z,28.03
2018-04-18T14:23:06.989Z,28.03
2018-04-18T14:24:16.553Z,28.17
2018-04-18T14:25:26.684Z,28.12
2018-04-18T14:26:36.667Z,28.09
2018-04-18T14:27:46.620Z,28.12
2018-04-18T14:28:56.476Z,28.14
2018-04-18T14:30:06.573Z,28.08
2018-04-18T14:31:16.676Z,28.06
2018-04-18T14:32:26.562Z,28.05
2018-04-18T14:33:36.680Z,28.08
2018-04-18T14:34:46.772Z,28.05
2018-04-18T14:35:56.880Z,28.08
2018-04-18T14:37:06.984Z,28.03
2018-04-18T14:38:17.133Z,28.02
2018-04-18T14:39:27.245Z,28.05
2018-04-18T14:40:37.365Z,28.02
2018-04-18T14:41:47.224Z,28.02
2018-04-18T14:42:57.331Z,27.99
2018-04-18T14:44:07.648Z,28.01
2018-04-18T14:45:17.740Z,27.98
2018-04-18T14:46:27.310Z,28.03
2018-04-18T14:47:37.146Z,28.03
2018-04-18T14:48:47.280Z,28.03
2018-04-18T14:49:57.178Z,28.02
2018-04-18T14:51:07.024Z,28.02
2018-04-18T14:52:16.888Z,27.86
2018-04-18T14:53:27.002Z,27.81
2018-04-18T14:54:36.886Z,27.81
2018-04-18T14:55:47.010Z,27.8
2018-04-18T14:56:56.862Z,27.72
2018-04-18T14:58:06.718Z,27.89
2018-04-18T14:59:16.809Z,27.89
2018-04-18T15:00:26.930Z,27.86
2018-04-18T15:01:37.042Z,27.96
2018-04-18T15:02:47.170Z,27.93
2018-04-18T15:03:57.289Z,27.9
2018-04-18T15:05:07.641Z,27.91
2018-04-18T15:06:17.932Z,27.83
2018-04-18T15:07:28.030Z,27.71
2018-04-18T15:08:38.137Z,27.71
2018-04-18T15:09:47.998Z,27.68
2018-04-18T15:10:58.088Z,27.74
2018-04-18T15:12:08.203Z,27.69
2018-04-18T15:13:18.297Z,27.74
2018-04-18T15:14:28.143Z,27.64
2018-04-18T15:15:38.245Z,27.74
2018-04-18T15:16:48.372Z,27.71
2018-04-18T15:17:58.523Z,27.76
2018-04-18T15:19:08.644Z,27.72
2018-04-18T15:20:18.765Z,27.69
2018-04-18T15:21:28.857Z,27.68
2018-04-18T15:22:39.000Z,27.74
2018-04-18T15:23:49.102Z,27.76
2018-04-18T15:24:59.488Z,27.76
2018-04-18T15:26:09.649Z,27.69
2018-04-18T15:27:19.747Z,27.69
2018-04-18T15:28:30.198Z,27.64
2018-04-18T15:29:40.414Z,27.61
2018-04-18T15:30:50.266Z,27.49
2018-04-18T15:32:00.368Z,27.61
2018-04-18T15:33:10.278Z,27.49
2018-04-18T15:34:20.396Z,27.62
2018-04-18T15:35:30.570Z,27.52